sensor_id;sensor_type;location;lat;lon;timestamp;pressure;altitude;pressure_sealevel;temperature
68952;BMP180;56000;51.146;17.112;2022-09-28T00:00:18;98555.60;;;9.50
68952;BMP180;56000;51.146;17.112;2022-09-28T00:03:11;98554.60;;;9.50
68952;BMP180;56000;51.146;17.112;2022-09-28T00:05:44;98550.60;;;9.50
68952;BMP180;56000;51.146;17.112;2022-09-28T00:08:17;98549.40;;;9.50
68952;BMP180;56000;51.146;17.112;2022-09-28T00:10:57;98546.20;;;9.50
68952;BMP180;56000;51.146;17.112;2022-09-28T00:13:29;98544.60;;;9.42
68952;BMP180;56000;51.146;17.112;2022-09-28T00:16:06;98548.00;;;9.40
68952;BMP180;56000;51.146;17.112;2022-09-28T00:18:39;98547.40;;;9.40
68952;BMP180;56000;51.146;17.112;2022-09-28T00:21:14;98546.20;;;9.40
68952;BMP180;56000;51.146;17.112;2022-09-28T00:23:49;98538.80;;;9.40
68952;BMP180;56000;51.146;17.112;2022-09-28T00:26:42;98535.00;;;9.40
68952;BMP180;56000;51.146;17.112;2022-09-28T00:29:22;98528.80;;;9.50
68952;BMP180;56000;51.146;17.112;2022-09-28T00:32:03;98525.80;;;9.50
68952;BMP180;56000;51.146;17.112;2022-09-28T00:34:42;98520.20;;;9.50
68952;BMP180;56000;51.146;17.112;2022-09-28T00:37:21;98519.60;;;9.50
68952;BMP180;56000;51.146;17.112;2022-09-28T00:39:57;98517.60;;;9.50
68952;BMP180;56000;51.146;17.112;2022-09-28T00:42:32;98514.80;;;9.44
68952;BMP180;56000;51.146;17.112;2022-09-28T00:45:12;98510.20;;;9.42
68952;BMP180;56000;51.146;17.112;2022-09-28T00:47:50;98511.80;;;9.40
68952;BMP180;56000;51.146;17.112;2022-09-28T00:50:32;98513.40;;;9.40
68952;BMP180;56000;51.146;17.112;2022-09-28T00:53:12;98516.40;;;9.40
68952;BMP180;56000;51.146;17.112;2022-09-28T00:55:53;98513.80;;;9.30
68952;BMP180;56000;51.146;17.112;2022-09-28T00:58:37;98513.40;;;9.22
68952;BMP180;56000;51.146;17.112;2022-09-28T01:01:13;98507.00;;;9.20
68952;BMP180;56000;51.146;17.112;2022-09-28T01:03:49;98508.00;;;9.20
68952;BMP180;56000;51.146;17.112;2022-09-28T01:06:29;98510.60;;;9.14
68952;BMP180;56000;51.146;17.112;2022-09-28T01:09:08;98508.80;;;9.10
68952;BMP180;56000;51.146;17.112;2022-09-28T01:11:43;98510.80;;;9.10
68952;BMP180;56000;51.146;17.112;2022-09-28T01:14:16;98504.20;;;9.10
68952;BMP180;56000;51.146;17.112;2022-09-28T01:16:56;98507.20;;;9.04
68952;BMP180;56000;51.146;17.112;2022-09-28T01:20:31;98504.00;;;9.00
68952;BMP180;56000;51.146;17.112;2022-09-28T01:23:45;98502.80;;;9.00
68952;BMP180;56000;51.146;17.112;2022-09-28T01:26:51;98511.40;;;9.00
68952;BMP180;56000;51.146;17.112;2022-09-28T01:29:48;98508.00;;;8.90
68952;BMP180;56000;51.146;17.112;2022-09-28T01:32:34;98502.80;;;8.90
68952;BMP180;56000;51.146;17.112;2022-09-28T01:35:12;98498.40;;;8.80
68952;BMP180;56000;51.146;17.112;2022-09-28T01:37:51;98503.60;;;8.80
68952;BMP180;56000;51.146;17.112;2022-09-28T01:40:26;98500.60;;;8.80
68952;BMP180;56000;51.146;17.112;2022-09-28T01:43:03;98502.20;;;8.70
68952;BMP180;56000;51.146;17.112;2022-09-28T01:45:42;98500.60;;;8.70
68952;BMP180;56000;51.146;17.112;2022-09-28T01:48:20;98501.80;;;8.70
68952;BMP180;56000;51.146;17.112;2022-09-28T01:50:59;98502.80;;;8.70
68952;BMP180;56000;51.146;17.112;2022-09-28T01:53:37;98501.20;;;8.70
68952;BMP180;56000;51.146;17.112;2022-09-28T01:56:22;98502.20;;;8.70
68952;BMP180;56000;51.146;17.112;2022-09-28T01:59:07;98499.40;;;8.70
68952;BMP180;56000;51.146;17.112;2022-09-28T02:01:44;98500.60;;;8.60
68952;BMP180;56000;51.146;17.112;2022-09-28T02:04:22;98496.60;;;8.60
68952;BMP180;56000;51.146;17.112;2022-09-28T02:07:01;98501.60;;;8.50
68952;BMP180;56000;51.146;17.112;2022-09-28T02:09:43;98503.20;;;8.50
68952;BMP180;56000;51.146;17.112;2022-09-28T02:12:22;98499.60;;;8.50
68952;BMP180;56000;51.146;17.112;2022-09-28T02:15:00;98499.40;;;8.40
68952;BMP180;56000;51.146;17.112;2022-09-28T02:17:38;98496.60;;;8.40
68952;BMP180;56000;51.146;17.112;2022-09-28T02:20:11;98496.60;;;8.40
68952;BMP180;56000;51.146;17.112;2022-09-28T02:22:48;98501.80;;;8.30
68952;BMP180;56000;51.146;17.112;2022-09-28T02:25:29;98502.60;;;8.30
68952;BMP180;56000;51.146;17.112;2022-09-28T02:28:05;98498.80;;;8.20
68952;BMP180;56000;51.146;17.112;2022-09-28T02:30:40;98502.60;;;8.20
68952;BMP180;56000;51.146;17.112;2022-09-28T02:33:17;98497.20;;;8.20
68952;BMP180;56000;51.146;17.112;2022-09-28T02:35:51;98495.20;;;8.10
68952;BMP180;56000;51.146;17.112;2022-09-28T02:38:25;98498.80;;;8.10
68952;BMP180;56000;51.146;17.112;2022-09-28T02:41:04;98494.60;;;8.06
68952;BMP180;56000;51.146;17.112;2022-09-28T02:43:51;98492.60;;;8.00
68952;BMP180;56000;51.146;17.112;2022-09-28T02:46:34;98495.80;;;8.00
68952;BMP180;56000;51.146;17.112;2022-09-28T02:49:25;98491.00;;;7.90
68952;BMP180;56000;51.146;17.112;2022-09-28T02:52:19;98498.00;;;7.90
68952;BMP180;56000;51.146;17.112;2022-09-28T02:55:27;98492.40;;;7.96
68952;BMP180;56000;51.146;17.112;2022-09-28T02:58:21;98498.40;;;8.00
68952;BMP180;56000;51.146;17.112;2022-09-28T03:01:00;98496.00;;;8.10
68952;BMP180;56000;51.146;17.112;2022-09-28T03:03:43;98499.60;;;8.18
68952;BMP180;56000;51.146;17.112;2022-09-28T03:06:25;98498.40;;;8.20
68952;BMP180;56000;51.146;17.112;2022-09-28T03:09:02;98497.40;;;8.20
68952;BMP180;56000;51.146;17.112;2022-09-28T03:11:41;98498.20;;;8.20
68952;BMP180;56000;51.146;17.112;2022-09-28T03:14:15;98495.60;;;8.20
68952;BMP180;56000;51.146;17.112;2022-09-28T03:16:53;98497.80;;;8.20
68952;BMP180;56000;51.146;17.112;2022-09-28T03:19:29;98499.20;;;8.20
68952;BMP180;56000;51.146;17.112;2022-09-28T03:22:03;98502.20;;;8.20
68952;BMP180;56000;51.146;17.112;2022-09-28T03:24:36;98508.80;;;8.22
68952;BMP180;56000;51.146;17.112;2022-09-28T03:27:10;98506.40;;;8.30
68952;BMP180;56000;51.146;17.112;2022-09-28T03:29:42;98505.40;;;8.30
68952;BMP180;56000;51.146;17.112;2022-09-28T03:32:15;98501.00;;;8.30
68952;BMP180;56000;51.146;17.112;2022-09-28T03:34:48;98502.60;;;8.30
68952;BMP180;56000;51.146;17.112;2022-09-28T03:37:21;98497.00;;;8.30
68952;BMP180;56000;51.146;17.112;2022-09-28T03:39:54;98499.40;;;8.36
68952;BMP180;56000;51.146;17.112;2022-09-28T03:42:27;98500.40;;;8.38
68952;BMP180;56000;51.146;17.112;2022-09-28T03:45:00;98501.80;;;8.40
68952;BMP180;56000;51.146;17.112;2022-09-28T03:47:33;98500.20;;;8.40
68952;BMP180;56000;51.146;17.112;2022-09-28T03:50:08;98503.20;;;8.40
68952;BMP180;56000;51.146;17.112;2022-09-28T03:52:40;98496.40;;;8.40
68952;BMP180;56000;51.146;17.112;2022-09-28T03:55:13;98494.60;;;8.46
68952;BMP180;56000;51.146;17.112;2022-09-28T03:57:53;98496.60;;;8.50
68952;BMP180;56000;51.146;17.112;2022-09-28T04:00:26;98491.80;;;8.50
68952;BMP180;56000;51.146;17.112;2022-09-28T04:02:59;98496.20;;;8.50
68952;BMP180;56000;51.146;17.112;2022-09-28T04:05:31;98493.00;;;8.52
68952;BMP180;56000;51.146;17.112;2022-09-28T04:08:06;98493.40;;;8.60
68952;BMP180;56000;51.146;17.112;2022-09-28T04:10:39;98495.20;;;8.60
68952;BMP180;56000;51.146;17.112;2022-09-28T04:13:12;98500.80;;;8.60
68952;BMP180;56000;51.146;17.112;2022-09-28T04:15:52;98498.00;;;8.60
68952;BMP180;56000;51.146;17.112;2022-09-28T04:18:26;98499.60;;;8.70
68952;BMP180;56000;51.146;17.112;2022-09-28T04:21:18;98494.40;;;8.70
68952;BMP180;56000;51.146;17.112;2022-09-28T04:24:00;98489.80;;;8.70
68952;BMP180;56000;51.146;17.112;2022-09-28T04:26:36;98494.20;;;8.70
68952;BMP180;56000;51.146;17.112;2022-09-28T04:29:11;98492.40;;;8.70
68952;BMP180;56000;51.146;17.112;2022-09-28T04:31:53;98486.40;;;8.78
68952;BMP180;56000;51.146;17.112;2022-09-28T04:34:38;98481.80;;;8.80
68952;BMP180;56000;51.146;17.112;2022-09-28T04:37:15;98481.20;;;8.80
68952;BMP180;56000;51.146;17.112;2022-09-28T04:39:48;98484.40;;;8.80
68952;BMP180;56000;51.146;17.112;2022-09-28T04:42:22;98485.60;;;8.80
68952;BMP180;56000;51.146;17.112;2022-09-28T04:44:55;98481.60;;;8.80
68952;BMP180;56000;51.146;17.112;2022-09-28T04:47:30;98478.40;;;8.80
68952;BMP180;56000;51.146;17.112;2022-09-28T04:50:07;98481.20;;;8.80
68952;BMP180;56000;51.146;17.112;2022-09-28T04:53:02;98477.40;;;8.80
68952;BMP180;56000;51.146;17.112;2022-09-28T04:55:34;98480.80;;;8.80
68952;BMP180;56000;51.146;17.112;2022-09-28T04:58:07;98483.00;;;8.80
68952;BMP180;56000;51.146;17.112;2022-09-28T05:00:40;98485.60;;;8.80
68952;BMP180;56000;51.146;17.112;2022-09-28T05:03:24;98482.80;;;8.82
68952;BMP180;56000;51.146;17.112;2022-09-28T05:06:26;98491.00;;;8.86
68952;BMP180;56000;51.146;17.112;2022-09-28T05:09:06;98489.80;;;8.90
68952;BMP180;56000;51.146;17.112;2022-09-28T05:11:39;98487.60;;;8.90
68952;BMP180;56000;51.146;17.112;2022-09-28T05:14:18;98489.80;;;8.90
68952;BMP180;56000;51.146;17.112;2022-09-28T05:16:52;98483.60;;;8.90
68952;BMP180;56000;51.146;17.112;2022-09-28T05:19:30;98479.00;;;8.90
68952;BMP180;56000;51.146;17.112;2022-09-28T05:22:06;98480.00;;;8.90
68952;BMP180;56000;51.146;17.112;2022-09-28T05:24:48;98475.80;;;8.90
68952;BMP180;56000;51.146;17.112;2022-09-28T05:27:20;98477.40;;;9.00
68952;BMP180;56000;51.146;17.112;2022-09-28T05:30:02;98477.40;;;9.00
68952;BMP180;56000;51.146;17.112;2022-09-28T05:32:53;98473.00;;;9.00
68952;BMP180;56000;51.146;17.112;2022-09-28T05:35:32;98474.20;;;9.10
68952;BMP180;56000;51.146;17.112;2022-09-28T05:38:08;98471.00;;;9.10
68952;BMP180;56000;51.146;17.112;2022-09-28T05:40:41;98471.00;;;9.20
68952;BMP180;56000;51.146;17.112;2022-09-28T05:43:14;98469.40;;;9.22
68952;BMP180;56000;51.146;17.112;2022-09-28T05:45:47;98471.00;;;9.30
68952;BMP180;56000;51.146;17.112;2022-09-28T05:48:25;98476.60;;;9.40
68952;BMP180;56000;51.146;17.112;2022-09-28T05:50:58;98472.00;;;9.44
68952;BMP180;56000;51.146;17.112;2022-09-28T05:53:32;98470.00;;;9.60
68952;BMP180;56000;51.146;17.112;2022-09-28T05:56:05;98472.60;;;9.70
68952;BMP180;56000;51.146;17.112;2022-09-28T05:58:40;98467.00;;;9.70
68952;BMP180;56000;51.146;17.112;2022-09-28T06:01:14;98465.80;;;9.90
68952;BMP180;56000;51.146;17.112;2022-09-28T06:03:48;98461.40;;;10.00
68952;BMP180;56000;51.146;17.112;2022-09-28T06:06:21;98459.20;;;10.10
68952;BMP180;56000;51.146;17.112;2022-09-28T06:08:54;98463.00;;;10.36
68952;BMP180;56000;51.146;17.112;2022-09-28T06:11:47;98456.20;;;10.60
68952;BMP180;56000;51.146;17.112;2022-09-28T06:14:49;98456.60;;;10.84
68952;BMP180;56000;51.146;17.112;2022-09-28T06:17:22;98459.00;;;11.10
68952;BMP180;56000;51.146;17.112;2022-09-28T06:20:15;98455.20;;;11.30
68952;BMP180;56000;51.146;17.112;2022-09-28T06:22:59;98459.00;;;11.50
68952;BMP180;56000;51.146;17.112;2022-09-28T06:25:32;98453.00;;;11.60
68952;BMP180;56000;51.146;17.112;2022-09-28T06:28:09;98449.80;;;11.60
68952;BMP180;56000;51.146;17.112;2022-09-28T06:30:43;98450.40;;;11.60
68952;BMP180;56000;51.146;17.112;2022-09-28T06:33:21;98455.20;;;11.68
68952;BMP180;56000;51.146;17.112;2022-09-28T06:35:59;98457.80;;;11.64
68952;BMP180;56000;51.146;17.112;2022-09-28T06:38:31;98454.80;;;11.60
68952;BMP180;56000;51.146;17.112;2022-09-28T06:41:04;98459.40;;;11.60
68952;BMP180;56000;51.146;17.112;2022-09-28T06:43:37;98448.20;;;11.60
68952;BMP180;56000;51.146;17.112;2022-09-28T06:46:29;98438.80;;;11.60
68952;BMP180;56000;51.146;17.112;2022-09-28T06:49:32;98443.20;;;11.52
68952;BMP180;56000;51.146;17.112;2022-09-28T06:52:24;98444.80;;;11.60
68952;BMP180;56000;51.146;17.112;2022-09-28T06:55:09;98438.80;;;11.70
68952;BMP180;56000;51.146;17.112;2022-09-28T06:57:47;98431.00;;;11.72
68952;BMP180;56000;51.146;17.112;2022-09-28T07:00:29;98431.80;;;11.80
68952;BMP180;56000;51.146;17.112;2022-09-28T07:03:05;98434.20;;;11.80
68952;BMP180;56000;51.146;17.112;2022-09-28T07:06:01;98427.00;;;11.80
68952;BMP180;56000;51.146;17.112;2022-09-28T07:08:37;98421.20;;;11.90
68952;BMP180;56000;51.146;17.112;2022-09-28T07:11:29;98421.20;;;11.90
68952;BMP180;56000;51.146;17.112;2022-09-28T07:14:34;98422.00;;;12.00
68952;BMP180;56000;51.146;17.112;2022-09-28T07:17:18;98414.80;;;12.10
68952;BMP180;56000;51.146;17.112;2022-09-28T07:19:51;98418.00;;;12.18
68952;BMP180;56000;51.146;17.112;2022-09-28T07:22:33;98424.40;;;12.30
68952;BMP180;56000;51.146;17.112;2022-09-28T07:25:18;98429.40;;;12.40
68952;BMP180;56000;51.146;17.112;2022-09-28T07:28:17;98434.80;;;12.50
68952;BMP180;56000;51.146;17.112;2022-09-28T07:30:50;98437.80;;;12.60
68952;BMP180;56000;51.146;17.112;2022-09-28T07:33:42;98438.40;;;12.70
68952;BMP180;56000;51.146;17.112;2022-09-28T07:36:30;98440.00;;;12.88
68952;BMP180;56000;51.146;17.112;2022-09-28T07:39:06;98436.20;;;12.92
68952;BMP180;56000;51.146;17.112;2022-09-28T07:41:38;98438.00;;;13.08
68952;BMP180;56000;51.146;17.112;2022-09-28T07:44:12;98437.40;;;13.30
68952;BMP180;56000;51.146;17.112;2022-09-28T07:46:47;98436.20;;;13.40
68952;BMP180;56000;51.146;17.112;2022-09-28T07:49:27;98431.80;;;13.34
68952;BMP180;56000;51.146;17.112;2022-09-28T07:52:18;98428.60;;;13.40
68952;BMP180;56000;51.146;17.112;2022-09-28T07:55:20;98423.00;;;13.50
68952;BMP180;56000;51.146;17.112;2022-09-28T07:58:02;98427.40;;;13.70
68952;BMP180;56000;51.146;17.112;2022-09-28T08:00:49;98426.80;;;14.18
68952;BMP180;56000;51.146;17.112;2022-09-28T08:03:22;98425.80;;;14.58
68952;BMP180;56000;51.146;17.112;2022-09-28T08:06:00;98416.20;;;14.90
68952;BMP180;56000;51.146;17.112;2022-09-28T08:08:35;98415.60;;;15.26
68952;BMP180;56000;51.146;17.112;2022-09-28T08:11:10;98422.00;;;15.58
68952;BMP180;56000;51.146;17.112;2022-09-28T08:13:56;98426.80;;;16.10
68952;BMP180;56000;51.146;17.112;2022-09-28T08:17:00;98424.40;;;16.16
68952;BMP180;56000;51.146;17.112;2022-09-28T08:19:44;98419.60;;;15.92
68952;BMP180;56000;51.146;17.112;2022-09-28T08:22:49;98421.60;;;16.02
68952;BMP180;56000;51.146;17.112;2022-09-28T08:25:22;98424.40;;;16.10
68952;BMP180;56000;51.146;17.112;2022-09-28T08:27:56;98423.80;;;16.26
68952;BMP180;56000;51.146;17.112;2022-09-28T08:30:29;98424.20;;;16.26
68952;BMP180;56000;51.146;17.112;2022-09-28T08:33:17;98421.40;;;16.10
68952;BMP180;56000;51.146;17.112;2022-09-28T08:35:57;98411.80;;;16.00
68952;BMP180;56000;51.146;17.112;2022-09-28T08:38:49;98405.80;;;16.08
68952;BMP180;56000;51.146;17.112;2022-09-28T08:41:47;98410.60;;;16.74
68952;BMP180;56000;51.146;17.112;2022-09-28T08:44:40;98409.60;;;16.56
68952;BMP180;56000;51.146;17.112;2022-09-28T08:47:48;98416.60;;;16.16
68952;BMP180;56000;51.146;17.112;2022-09-28T08:50:58;98408.60;;;15.90
68952;BMP180;56000;51.146;17.112;2022-09-28T08:53:56;98407.20;;;16.30
68952;BMP180;56000;51.146;17.112;2022-09-28T08:56:43;98408.20;;;17.56
68952;BMP180;56000;51.146;17.112;2022-09-28T08:59:23;98399.00;;;18.50
68952;BMP180;56000;51.146;17.112;2022-09-28T09:02:14;98390.60;;;19.12
68952;BMP180;56000;51.146;17.112;2022-09-28T09:04:48;98390.40;;;19.80
68952;BMP180;56000;51.146;17.112;2022-09-28T09:08:22;98390.60;;;20.56
68952;BMP180;56000;51.146;17.112;2022-09-28T09:11:07;98387.80;;;21.26
68952;BMP180;56000;51.146;17.112;2022-09-28T09:14:39;98380.80;;;21.96
68952;BMP180;56000;51.146;17.112;2022-09-28T09:17:25;98381.60;;;22.88
68952;BMP180;56000;51.146;17.112;2022-09-28T09:20:44;98386.20;;;21.84
68952;BMP180;56000;51.146;17.112;2022-09-28T09:23:55;98389.60;;;20.90
68952;BMP180;56000;51.146;17.112;2022-09-28T09:26:37;98384.20;;;20.60
68952;BMP180;56000;51.146;17.112;2022-09-28T09:29:26;98379.80;;;21.58
68952;BMP180;56000;51.146;17.112;2022-09-28T09:32:14;98376.00;;;21.24
68952;BMP180;56000;51.146;17.112;2022-09-28T09:35:06;98382.00;;;20.08
68952;BMP180;56000;51.146;17.112;2022-09-28T09:38:24;98391.20;;;18.98
68952;BMP180;56000;51.146;17.112;2022-09-28T09:41:36;98391.60;;;18.50
68952;BMP180;56000;51.146;17.112;2022-09-28T09:44:42;98389.20;;;17.80
68952;BMP180;56000;51.146;17.112;2022-09-28T09:47:40;98390.00;;;17.20
68952;BMP180;56000;51.146;17.112;2022-09-28T09:50:32;98385.00;;;16.80
68952;BMP180;56000;51.146;17.112;2022-09-28T09:53:17;98384.00;;;16.50
68952;BMP180;56000;51.146;17.112;2022-09-28T09:55:59;98379.60;;;16.54
68952;BMP180;56000;51.146;17.112;2022-09-28T09:58:45;98380.80;;;16.70
68952;BMP180;56000;51.146;17.112;2022-09-28T10:01:31;98379.80;;;16.90
68952;BMP180;56000;51.146;17.112;2022-09-28T10:04:31;98373.40;;;17.26
68952;BMP180;56000;51.146;17.112;2022-09-28T10:07:19;98368.40;;;18.20
68952;BMP180;56000;51.146;17.112;2022-09-28T10:09:57;98369.80;;;18.50
68952;BMP180;56000;51.146;17.112;2022-09-28T10:12:47;98374.40;;;19.06
68952;BMP180;56000;51.146;17.112;2022-09-28T10:15:25;98373.00;;;19.40
68952;BMP180;56000;51.146;17.112;2022-09-28T10:18:17;98374.80;;;19.50
68952;BMP180;56000;51.146;17.112;2022-09-28T10:21:14;98380.80;;;19.06
68952;BMP180;56000;51.146;17.112;2022-09-28T10:23:58;98380.20;;;18.34
68952;BMP180;56000;51.146;17.112;2022-09-28T10:26:38;98380.00;;;17.80
68952;BMP180;56000;51.146;17.112;2022-09-28T10:29:18;98382.60;;;17.36
68952;BMP180;56000;51.146;17.112;2022-09-28T10:31:53;98382.40;;;17.00
68952;BMP180;56000;51.146;17.112;2022-09-28T10:34:32;98388.60;;;16.90
68952;BMP180;56000;51.146;17.112;2022-09-28T10:37:11;98384.00;;;16.64
68952;BMP180;56000;51.146;17.112;2022-09-28T10:40:07;98387.20;;;16.50
68952;BMP180;56000;51.146;17.112;2022-09-28T10:43:06;98393.60;;;16.40
68952;BMP180;56000;51.146;17.112;2022-09-28T10:45:47;98397.00;;;16.20
68952;BMP180;56000;51.146;17.112;2022-09-28T10:48:22;98394.20;;;16.00
68952;BMP180;56000;51.146;17.112;2022-09-28T10:51:05;98393.60;;;15.80
68952;BMP180;56000;51.146;17.112;2022-09-28T10:53:39;98399.00;;;15.58
68952;BMP180;56000;51.146;17.112;2022-09-28T10:56:43;98395.20;;;15.24
68952;BMP180;56000;51.146;17.112;2022-09-28T10:59:41;98401.00;;;14.90
68952;BMP180;56000;51.146;17.112;2022-09-28T11:02:26;98412.40;;;14.46
68952;BMP180;56000;51.146;17.112;2022-09-28T11:05:21;98424.60;;;13.88
68952;BMP180;56000;51.146;17.112;2022-09-28T11:08:03;98436.20;;;13.28
68952;BMP180;56000;51.146;17.112;2022-09-28T11:10:44;98437.00;;;12.62
68952;BMP180;56000;51.146;17.112;2022-09-28T11:13:17;98435.00;;;12.06
68952;BMP180;56000;51.146;17.112;2022-09-28T11:15:58;98442.20;;;11.60
68952;BMP180;56000;51.146;17.112;2022-09-28T11:18:35;98436.60;;;11.20
68952;BMP180;56000;51.146;17.112;2022-09-28T11:21:15;98424.00;;;10.90
68952;BMP180;56000;51.146;17.112;2022-09-28T11:24:19;98419.20;;;10.70
68952;BMP180;56000;51.146;17.112;2022-09-28T11:26:55;98415.40;;;10.60
68952;BMP180;56000;51.146;17.112;2022-09-28T11:29:39;98416.80;;;10.50
68952;BMP180;56000;51.146;17.112;2022-09-28T11:32:38;98414.00;;;10.54
68952;BMP180;56000;51.146;17.112;2022-09-28T11:35:30;98409.80;;;10.60
68952;BMP180;56000;51.146;17.112;2022-09-28T11:38:26;98407.20;;;10.70
68952;BMP180;56000;51.146;17.112;2022-09-28T11:41:46;98412.20;;;10.70
68952;BMP180;56000;51.146;17.112;2022-09-28T11:44:42;98415.40;;;10.80
68952;BMP180;56000;51.146;17.112;2022-09-28T11:47:46;98417.00;;;10.80
68952;BMP180;56000;51.146;17.112;2022-09-28T11:50:39;98410.40;;;10.70
68952;BMP180;56000;51.146;17.112;2022-09-28T11:53:20;98411.00;;;10.70
68952;BMP180;56000;51.146;17.112;2022-09-28T11:56:07;98411.40;;;10.72
68952;BMP180;56000;51.146;17.112;2022-09-28T11:58:47;98417.40;;;10.70
68952;BMP180;56000;51.146;17.112;2022-09-28T12:01:27;98413.40;;;10.70
68952;BMP180;56000;51.146;17.112;2022-09-28T12:04:30;98413.20;;;10.60
68952;BMP180;56000;51.146;17.112;2022-09-28T12:07:13;98415.20;;;10.60
68952;BMP180;56000;51.146;17.112;2022-09-28T12:09:54;98413.40;;;10.60
68952;BMP180;56000;51.146;17.112;2022-09-28T12:12:29;98408.00;;;10.70
68952;BMP180;56000;51.146;17.112;2022-09-28T12:15:17;98402.40;;;10.70
68952;BMP180;56000;51.146;17.112;2022-09-28T12:17:56;98401.60;;;10.80
68952;BMP180;56000;51.146;17.112;2022-09-28T12:20:34;98396.40;;;10.80
68952;BMP180;56000;51.146;17.112;2022-09-28T12:23:15;98396.80;;;10.88
68952;BMP180;56000;51.146;17.112;2022-09-28T12:25:56;98391.00;;;10.98
68952;BMP180;56000;51.146;17.112;2022-09-28T12:28:37;98395.60;;;11.08
68952;BMP180;56000;51.146;17.112;2022-09-28T12:31:16;98391.20;;;11.20
68952;BMP180;56000;51.146;17.112;2022-09-28T12:33:53;98384.40;;;11.30
68952;BMP180;56000;51.146;17.112;2022-09-28T12:36:39;98381.60;;;11.34
68952;BMP180;56000;51.146;17.112;2022-09-28T12:39:32;98374.80;;;11.40
68952;BMP180;56000;51.146;17.112;2022-09-28T12:42:52;98382.40;;;11.42
68952;BMP180;56000;51.146;17.112;2022-09-28T12:45:46;98379.40;;;11.50
68952;BMP180;56000;51.146;17.112;2022-09-28T12:49:12;98377.40;;;11.50
68952;BMP180;56000;51.146;17.112;2022-09-28T12:52:25;98367.20;;;11.50
68952;BMP180;56000;51.146;17.112;2022-09-28T12:55:39;98363.60;;;11.60
68952;BMP180;56000;51.146;17.112;2022-09-28T12:58:29;98357.60;;;11.60
68952;BMP180;56000;51.146;17.112;2022-09-28T13:01:23;98353.00;;;11.60
68952;BMP180;56000;51.146;17.112;2022-09-28T13:04:33;98341.60;;;11.60
68952;BMP180;56000;51.146;17.112;2022-09-28T13:07:16;98338.80;;;11.50
68952;BMP180;56000;51.146;17.112;2022-09-28T13:10:01;98334.80;;;11.50
68952;BMP180;56000;51.146;17.112;2022-09-28T13:12:58;98343.00;;;11.50
68952;BMP180;56000;51.146;17.112;2022-09-28T13:15:50;98331.40;;;11.70
68952;BMP180;56000;51.146;17.112;2022-09-28T13:18:29;98327.80;;;11.94
68952;BMP180;56000;51.146;17.112;2022-09-28T13:21:19;98329.40;;;12.20
68952;BMP180;56000;51.146;17.112;2022-09-28T13:23:56;98337.80;;;12.20
68952;BMP180;56000;51.146;17.112;2022-09-28T13:26:52;98339.00;;;12.20
68952;BMP180;56000;51.146;17.112;2022-09-28T13:29:26;98333.80;;;12.20
68952;BMP180;56000;51.146;17.112;2022-09-28T13:32:00;98338.60;;;12.20
68952;BMP180;56000;51.146;17.112;2022-09-28T13:34:36;98343.80;;;12.20
68952;BMP180;56000;51.146;17.112;2022-09-28T13:37:26;98337.80;;;12.10
68952;BMP180;56000;51.146;17.112;2022-09-28T13:39:59;98344.20;;;11.88
68952;BMP180;56000;51.146;17.112;2022-09-28T13:43:01;98341.80;;;11.64
68952;BMP180;56000;51.146;17.112;2022-09-28T13:45:51;98342.00;;;11.50
68952;BMP180;56000;51.146;17.112;2022-09-28T13:48:31;98340.60;;;11.32
68952;BMP180;56000;51.146;17.112;2022-09-28T13:51:23;98340.20;;;11.20
68952;BMP180;56000;51.146;17.112;2022-09-28T13:54:21;98338.80;;;11.10
68952;BMP180;56000;51.146;17.112;2022-09-28T13:57:07;98340.20;;;11.10
68952;BMP180;56000;51.146;17.112;2022-09-28T14:00:00;98337.20;;;11.10
68952;BMP180;56000;51.146;17.112;2022-09-28T14:02:47;98336.00;;;11.10
68952;BMP180;56000;51.146;17.112;2022-09-28T14:05:46;98336.60;;;11.04
68952;BMP180;56000;51.146;17.112;2022-09-28T14:08:32;98331.60;;;11.10
68952;BMP180;56000;51.146;17.112;2022-09-28T14:11:54;98321.60;;;11.20
68952;BMP180;56000;51.146;17.112;2022-09-28T14:14:47;98319.80;;;11.30
68952;BMP180;56000;51.146;17.112;2022-09-28T14:18:00;98320.80;;;11.30
68952;BMP180;56000;51.146;17.112;2022-09-28T14:20:49;98332.00;;;11.30
68952;BMP180;56000;51.146;17.112;2022-09-28T14:23:53;98335.20;;;11.28
68952;BMP180;56000;51.146;17.112;2022-09-28T14:29:42;98311.40;;;11.10
68952;BMP180;56000;51.146;17.112;2022-09-28T14:32:32;98314.60;;;11.10
68952;BMP180;56000;51.146;17.112;2022-09-28T14:35:15;98317.00;;;11.00
68952;BMP180;56000;51.146;17.112;2022-09-28T14:37:53;98311.40;;;11.00
68952;BMP180;56000;51.146;17.112;2022-09-28T14:41:00;98318.20;;;11.00
68952;BMP180;56000;51.146;17.112;2022-09-28T14:44:04;98316.40;;;11.00
68952;BMP180;56000;51.146;17.112;2022-09-28T14:46:45;98309.40;;;11.00
68952;BMP180;56000;51.146;17.112;2022-09-28T14:52:47;98305.60;;;11.02
68952;BMP180;56000;51.146;17.112;2022-09-28T14:55:28;98304.20;;;11.00
68952;BMP180;56000;51.146;17.112;2022-09-28T14:58:03;98314.40;;;11.10
68952;BMP180;56000;51.146;17.112;2022-09-28T15:00:38;98313.40;;;11.10
68952;BMP180;56000;51.146;17.112;2022-09-28T15:03:15;98310.80;;;11.20
68952;BMP180;56000;51.146;17.112;2022-09-28T15:05:49;98305.60;;;11.26
68952;BMP180;56000;51.146;17.112;2022-09-28T15:08:33;98299.20;;;11.30
68952;BMP180;56000;51.146;17.112;2022-09-28T15:11:12;98293.00;;;11.40
68952;BMP180;56000;51.146;17.112;2022-09-28T15:13:46;98301.40;;;11.44
68952;BMP180;56000;51.146;17.112;2022-09-28T15:16:23;98297.00;;;11.52
68952;BMP180;56000;51.146;17.112;2022-09-28T15:19:20;98293.00;;;11.68
68952;BMP180;56000;51.146;17.112;2022-09-28T15:21:56;98299.80;;;11.80
68952;BMP180;56000;51.146;17.112;2022-09-28T15:24:32;98302.00;;;11.90
68952;BMP180;56000;51.146;17.112;2022-09-28T15:27:15;98306.40;;;11.94
68952;BMP180;56000;51.146;17.112;2022-09-28T15:30:00;98308.20;;;12.08
68952;BMP180;56000;51.146;17.112;2022-09-28T15:32:34;98309.40;;;12.20
68952;BMP180;56000;51.146;17.112;2022-09-28T15:35:19;98304.80;;;12.30
68952;BMP180;56000;51.146;17.112;2022-09-28T15:37:53;98302.20;;;12.40
68952;BMP180;56000;51.146;17.112;2022-09-28T15:40:33;98304.60;;;12.50
68952;BMP180;56000;51.146;17.112;2022-09-28T15:43:22;98308.40;;;12.60